Time;durP1;ratioP1;P1;durP2;ratioP2;P2;SDS_P1;SDS_P2;PMS_P1;PMS_P2;Temp;Humidity;BMP_temperature;BMP_pressure;BME280_temperature;BME280_humidity;BME280_pressure;Samples;Min_cycle;Max_cycle;Signal;HPM_P1;HPM_P2
2024/01/01 00:02:21;;;;;;;29.27;22.93;;;6.80;99.90;;;;;;5117100;28;20166;-74
2024/01/01 00:04:46;;;;;;;33.70;23.30;;;6.90;99.90;;;;;;5116014;28;20161;-73
2024/01/01 00:07:12;;;;;;;48.93;32.67;;;6.90;99.90;;;;;;5116434;28;20190;-74
2024/01/01 00:09:38;;;;;;;36.67;24.73;;;6.80;99.90;;;;;;5112356;28;20169;-73
2024/01/01 00:12:04;;;;;;;35.07;20.03;;;6.80;99.90;;;;;;5096475;28;20423;-72
2024/01/01 00:14:30;;;;;;;27.20;19.97;;;6.80;99.90;;;;;;5096098;28;20158;-76
2024/01/01 00:16:55;;;;;;;27.17;16.87;;;6.90;99.90;;;;;;5095817;28;20453;-73
2024/01/01 00:19:21;;;;;;;25.90;18.23;;;6.90;99.90;;;;;;5108691;28;20192;-75
2024/01/01 00:21:47;;;;;;;26.80;16.27;;;6.90;99.90;;;;;;5116727;28;20567;-73
2024/01/01 00:24:12;;;;;;;25.00;15.60;;;6.80;99.90;;;;;;5116559;28;20182;-75
2024/01/01 00:26:38;;;;;;;18.30;15.20;;;6.80;99.90;;;;;;5113212;28;20193;-76
2024/01/01 00:29:05;;;;;;;21.10;14.43;;;6.90;99.90;;;;;;5116196;28;20181;-74
2024/01/01 00:31:31;;;;;;;20.03;13.00;;;6.90;99.90;;;;;;5116674;28;20315;-73
2024/01/01 00:33:57;;;;;;;24.23;14.27;;;6.90;99.90;;;;;;5116527;28;20939;-71
2024/01/01 00:36:22;;;;;;;20.27;13.13;;;6.90;99.90;;;;;;5114179;28;20182;-73
2024/01/01 00:38:50;;;;;;;22.90;13.13;;;6.90;99.90;;;;;;5114947;28;20201;-74
2024/01/01 00:41:16;;;;;;;23.73;12.77;;;6.90;99.90;;;;;;5114950;28;20168;-74
2024/01/01 00:43:43;;;;;;;19.80;13.27;;;6.90;99.90;;;;;;5116070;28;20919;-75
2024/01/01 00:46:09;;;;;;;22.37;14.27;;;6.90;99.90;;;;;;5111044;28;20920;-72
2024/01/01 00:48:35;;;;;;;24.93;13.27;;;6.90;99.90;;;;;;5095556;28;20417;-74
2024/01/01 00:51:01;;;;;;;25.63;14.53;;;6.90;99.90;;;;;;5095629;28;20461;-73
2024/01/01 00:53:27;;;;;;;30.23;16.03;;;6.90;99.90;;;;;;5095355;28;20261;-72
2024/01/01 00:55:52;;;;;;;21.37;15.70;;;6.90;99.90;;;;;;5104556;28;20208;-73
2024/01/01 00:58:18;;;;;;;25.50;17.40;;;6.90;99.90;;;;;;5082393;28;20836;-75
2024/01/01 01:00:44;;;;;;;36.27;21.97;;;6.90;99.90;;;;;;5073597;28;20174;-75
2024/01/01 01:03:09;;;;;;;29.80;20.40;;;6.90;95.60;;;;;;5075238;28;20174;-75
2024/01/01 01:05:35;;;;;;;28.77;21.23;;;6.90;92.90;;;;;;5085532;28;20688;-75
2024/01/01 01:08:01;;;;;;;34.47;22.33;;;6.80;84.90;;;;;;5095023;28;20683;-73
2024/01/01 01:10:27;;;;;;;35.70;21.97;;;6.80;78.80;;;;;;5094181;28;20174;-75
2024/01/01 01:12:56;;;;;;;37.13;24.23;;;6.80;78.80;;;;;;5095421;28;20461;-72
2024/01/01 01:15:26;;;;;;;40.73;26.77;;;6.80;78.80;;;;;;5080171;28;20169;-72
2024/01/01 01:17:52;;;;;;;43.27;25.17;;;6.80;78.70;;;;;;5074468;28;20428;-76
2024/01/01 01:20:19;;;;;;;38.67;25.47;;;6.70;70.70;;;;;;5075081;28;20400;-71
2024/01/01 01:22:45;;;;;;;45.33;27.37;;;6.70;63.10;;;;;;5074799;28;20910;-75
2024/01/01 01:25:12;;;;;;;46.90;27.33;;;6.70;59.30;;;;;;5092109;28;20448;-76
2024/01/01 01:27:40;;;;;;;39.23;26.10;;;6.60;57.70;;;;;;5113419;28;20573;-75
2024/01/01 01:30:06;;;;;;;38.93;26.43;;;6.60;55.50;;;;;;5114415;28;20460;-73
2024/01/01 01:32:32;;;;;;;46.80;27.40;;;6.60;53.60;;;;;;5115351;28;20395;-72
2024/01/01 01:34:58;;;;;;;41.63;26.70;;;6.60;47.70;;;;;;5097439;28;20467;-75
2024/01/01 01:37:23;;;;;;;45.77;29.40;;;6.60;42.70;;;;;;5073838;28;20212;-72
2024/01/01 01:39:49;;;;;;;44.77;29.27;;;6.60;36.10;;;;;;5091316;28;20542;-72
2024/01/01 01:42:15;;;;;;;47.83;29.17;;;6.60;29.80;;;;;;5110590;28;20197;-73
2024/01/01 01:44:40;;;;;;;49.40;27.60;;;6.60;29.80;;;;;;5093860;28;20178;-73
2024/01/01 01:47:06;;;;;;;46.87;29.37;;;6.50;29.80;;;;;;5093860;28;20243;-73
2024/01/01 01:49:33;;;;;;;44.70;28.47;;;6.50;29.70;;;;;;5094668;28;20198;-75
2024/01/01 01:52:02;;;;;;;41.20;25.57;;;6.50;29.70;;;;;;5094532;28;20367;-75
2024/01/01 01:54:29;;;;;;;47.17;26.20;;;6.50;29.70;;;;;;5094832;28;20407;-75
2024/01/01 01:56:55;;;;;;;41.57;26.63;;;6.50;24.80;;;;;;5092312;28;20445;-74
2024/01/01 01:59:22;;;;;;;41.27;26.67;;;6.50;17.90;;;;;;5094251;28;20841;-73
2024/01/01 02:01:48;;;;;;;35.80;23.93;;;6.50;18.60;;;;;;5094322;28;20165;-74
2024/01/01 02:04:14;;;;;;;41.23;24.40;;;6.50;16.10;;;;;;5094061;28;20553;-73
2024/01/01 02:06:39;;;;;;;39.67;25.30;;;6.50;14.70;;;;;;5092086;28;20926;-75
2024/01/01 02:09:06;;;;;;;37.80;23.20;;;6.50;15.30;;;;;;5094687;28;20197;-75
2024/01/01 02:11:32;;;;;;;31.87;21.10;;;6.50;8.80;;;;;;5093418;28;20196;-73
2024/01/01 02:14:08;;;;;;;32.97;20.50;;;6.60;5.40;;;;;;5094071;28;20437;-71
2024/01/01 02:16:34;;;;;;;30.13;18.60;;;6.60;1.70;;;;;;5092807;28;20427;-73
2024/01/01 02:19:00;;;;;;;28.60;19.53;;;6.60;1.00;;;;;;5092630;28;20929;-75
2024/01/01 02:21:27;;;;;;;32.87;18.97;;;6.60;1.00;;;;;;5093668;28;20185;-72
2024/01/01 02:23:54;;;;;;;25.63;18.10;;;6.60;1.00;;;;;;5100315;28;20169;-72
2024/01/01 02:26:20;;;;;;;31.07;18.63;;;6.60;1.00;;;;;;5113226;28;20418;-72
2024/01/01 02:28:46;;;;;;;23.17;16.03;;;6.60;1.00;;;;;;5114219;28;20432;-73
2024/01/01 02:31:11;;;;;;;25.93;15.90;;;6.60;1.00;;;;;;5114237;28;20169;-75
2024/01/01 02:33:37;;;;;;;36.87;18.17;;;6.60;1.00;;;;;;5113696;28;20177;-75
2024/01/01 02:36:03;;;;;;;23.43;16.73;;;6.60;1.00;;;;;;5112108;28;20177;-72
2024/01/01 02:38:29;;;;;;;25.60;16.67;;;6.60;1.00;;;;;;5086293;28;20198;-72
2024/01/01 02:40:55;;;;;;;26.27;17.07;;;6.60;1.00;;;;;;5073556;28;20431;-72
2024/01/01 02:43:20;;;;;;;24.87;16.27;;;6.60;1.00;;;;;;5073091;28;20204;-74
2024/01/01 02:45:46;;;;;;;25.87;15.57;;;6.60;1.00;;;;;;5072410;28;20175;-75
2024/01/01 02:48:12;;;;;;;27.40;16.93;;;6.60;1.00;;;;;;5073124;28;20260;-75
2024/01/01 02:50:37;;;;;;;27.93;14.83;;;6.60;1.00;;;;;;5073174;28;20170;-75
2024/01/01 02:53:03;;;;;;;28.83;15.50;;;6.60;1.00;;;;;;5100080;28;20178;-74
2024/01/01 02:55:29;;;;;;;19.23;15.03;;;6.60;1.00;;;;;;5092529;28;20158;-75
2024/01/01 02:57:54;;;;;;;24.63;15.73;;;6.60;1.00;;;;;;5092979;28;20189;-75
2024/01/01 03:00:20;;;;;;;34.20;15.03;;;6.60;1.00;;;;;;5092936;28;20256;-76
2024/01/01 03:02:46;;;;;;;23.80;15.30;;;6.60;1.00;;;;;;5093098;28;20173;-76
2024/01/01 03:05:12;;;;;;;27.33;15.10;;;6.70;1.00;;;;;;5092331;28;20235;-75
2024/01/01 03:07:37;;;;;;;23.57;13.50;;;6.70;1.00;;;;;;5106346;28;20604;-73
2024/01/01 03:10:04;;;;;;;20.77;14.20;;;6.70;1.00;;;;;;5097690;28;20168;-75
2024/01/01 03:12:31;;;;;;;23.80;15.83;;;6.70;1.00;;;;;;5092488;28;20631;-75
2024/01/01 03:14:56;;;;;;;18.70;13.10;;;6.70;1.00;;;;;;5091985;28;20400;-76
2024/01/01 03:17:22;;;;;;;24.00;15.07;;;6.70;1.00;;;;;;5092983;28;20937;-76
2024/01/01 03:19:48;;;;;;;18.70;14.00;;;6.60;1.00;;;;;;5092915;28;20240;-73
2024/01/01 03:22:13;;;;;;;22.83;13.60;;;6.70;1.00;;;;;;5104848;28;20177;-74
2024/01/01 03:24:39;;;;;;;24.23;13.70;;;6.60;1.00;;;;;;5111280;28;20224;-73
2024/01/01 03:27:05;;;;;;;29.00;17.67;;;6.60;1.00;;;;;;5112794;28;20243;-74
2024/01/01 03:29:31;;;;;;;23.93;13.43;;;6.60;1.00;;;;;;5113329;28;20188;-74
2024/01/01 03:31:57;;;;;;;22.77;13.40;;;6.60;1.00;;;;;;5112784;28;20947;-72
2024/01/01 03:34:23;;;;;;;19.13;12.63;;;6.60;1.00;;;;;;5109369;28;20188;-74
2024/01/01 03:36:50;;;;;;;26.50;13.83;;;6.60;1.00;;;;;;5091615;28;20173;-72
2024/01/01 03:39:16;;;;;;;23.63;14.13;;;6.60;1.00;;;;;;5092577;28;20435;-75
2024/01/01 03:41:41;;;;;;;27.00;13.90;;;6.60;1.00;;;;;;5089056;28;20417;-73
2024/01/01 03:44:10;;;;;;;20.27;13.27;;;6.60;1.00;;;;;;5092027;28;20634;-72
2024/01/01 03:46:35;;;;;;;26.33;13.33;;;6.70;1.00;;;;;;5091533;28;20314;-75
2024/01/01 03:49:01;;;;;;;21.40;13.37;;;6.70;1.00;;;;;;5094392;28;20503;-74
2024/01/01 03:51:27;;;;;;;25.07;14.60;;;6.70;1.00;;;;;;5109530;28;20185;-72
2024/01/01 03:53:52;;;;;;;22.73;14.33;;;6.60;1.00;;;;;;5092610;28;20639;-72
2024/01/01 03:56:18;;;;;;;20.83;13.10;;;6.70;1.00;;;;;;5092007;28;20177;-75
2024/01/01 03:58:44;;;;;;;23.80;14.80;;;6.70;1.00;;;;;;5092395;28;20543;-72
2024/01/01 04:01:16;;;;;;;14.17;11.57;;;6.70;1.00;;;;;;5091240;28;20169;-74
2024/01/01 04:03:41;;;;;;;20.10;13.03;;;6.60;1.00;;;;;;5104509;28;20181;-72
2024/01/01 04:06:08;;;;;;;15.77;11.37;;;6.60;1.00;;;;;;5112237;28;20489;-72
2024/01/01 04:08:34;;;;;;;16.10;12.50;;;6.60;1.00;;;;;;5111101;28;20201;-72
2024/01/01 04:11:00;;;;;;;23.87;13.93;;;6.60;1.00;;;;;;5111804;28;20411;-72
2024/01/01 04:13:25;;;;;;;15.27;11.47;;;6.70;1.00;;;;;;5112957;28;20165;-72
2024/01/01 04:15:52;;;;;;;18.00;11.40;;;6.60;1.00;;;;;;5111995;28;20192;-74
2024/01/01 04:18:17;;;;;;;17.33;12.07;;;6.70;1.00;;;;;;5112235;28;20279;-74
2024/01/01 04:20:43;;;;;;;15.67;11.03;;;6.70;1.00;;;;;;5112685;28;21189;-75
2024/01/01 04:23:09;;;;;;;21.50;13.07;;;6.70;1.00;;;;;;5111359;28;20223;-73
2024/01/01 04:25:34;;;;;;;15.03;11.43;;;6.80;1.00;;;;;;5112098;28;20206;-75
2024/01/01 04:28:00;;;;;;;15.27;10.30;;;6.80;1.00;;;;;;5112029;28;20205;-72
2024/01/01 04:30:26;;;;;;;18.87;10.70;;;6.80;1.00;;;;;;5112627;28;20166;-74
2024/01/01 04:32:51;;;;;;;16.37;10.60;;;6.80;1.00;;;;;;5112833;28;20173;-74
2024/01/01 04:35:17;;;;;;;20.27;10.07;;;6.80;1.00;;;;;;5113133;28;20546;-72
2024/01/01 04:37:43;;;;;;;16.97;10.90;;;6.80;1.00;;;;;;5114737;28;20232;-74
2024/01/01 04:40:08;;;;;;;14.83;10.30;;;6.80;1.00;;;;;;5115218;28;20188;-75
2024/01/01 04:42:34;;;;;;;11.60;9.30;;;6.80;1.00;;;;;;5114710;28;20176;-75
2024/01/01 04:45:00;;;;;;;17.00;10.27;;;6.80;1.00;;;;;;5114982;28;20530;-72
2024/01/01 04:47:26;;;;;;;9.43;7.97;;;6.80;1.00;;;;;;5115973;28;20198;-76
2024/01/01 04:49:51;;;;;;;16.50;10.17;;;6.80;1.00;;;;;;5115052;28;20310;-72
2024/01/01 04:52:17;;;;;;;13.03;10.03;;;6.80;1.00;;;;;;5115006;28;20169;-76
2024/01/01 04:54:43;;;;;;;15.13;9.67;;;6.80;1.00;;;;;;5115125;28;20414;-76
2024/01/01 04:57:09;;;;;;;15.23;9.17;;;6.80;1.00;;;;;;5115792;28;20165;-75
2024/01/01 04:59:34;;;;;;;19.47;10.60;;;6.80;1.00;;;;;;5115953;28;20283;-72
2024/01/01 05:02:00;;;;;;;10.93;8.13;;;6.80;1.00;;;;;;5115684;28;20489;-74
2024/01/01 05:04:26;;;;;;;20.00;9.13;;;6.80;1.00;;;;;;5115410;28;20186;-73
2024/01/01 05:06:51;;;;;;;15.27;8.67;;;6.80;1.00;;;;;;5113821;28;20199;-72
2024/01/01 05:09:17;;;;;;;9.93;8.10;;;6.80;1.00;;;;;;5115551;28;20246;-76
2024/01/01 05:11:44;;;;;;;13.00;9.00;;;6.80;1.00;;;;;;5105339;28;20248;-73
2024/01/01 05:14:10;;;;;;;10.00;8.60;;;6.90;1.00;;;;;;5095349;28;20493;-72
2024/01/01 05:16:36;;;;;;;13.13;8.53;;;6.90;1.00;;;;;;5094294;28;20400;-76
2024/01/01 05:19:02;;;;;;;12.20;9.10;;;6.90;1.00;;;;;;5094375;28;20423;-76
2024/01/01 05:21:28;;;;;;;16.63;9.20;;;6.90;1.00;;;;;;5097868;28;20168;-76
2024/01/01 05:23:54;;;;;;;11.23;9.40;;;6.90;1.00;;;;;;5114223;28;20480;-76
2024/01/01 05:26:20;;;;;;;13.83;9.43;;;7.00;1.00;;;;;;5114389;28;20181;-76
2024/01/01 05:28:45;;;;;;;13.23;9.30;;;7.00;1.00;;;;;;5115279;28;20197;-74
2024/01/01 05:31:11;;;;;;;18.00;9.80;;;7.00;1.00;;;;;;5115377;28;20165;-76
2024/01/01 05:33:36;;;;;;;11.73;8.53;;;6.90;1.00;;;;;;5115342;28;20218;-72
2024/01/01 05:36:02;;;;;;;14.63;9.03;;;6.90;1.00;;;;;;5099063;28;20323;-73
2024/01/01 05:38:28;;;;;;;22.67;10.23;;;7.00;1.00;;;;;;5112246;28;20602;-74
2024/01/01 05:40:54;;;;;;;16.83;10.10;;;7.00;1.00;;;;;;5114719;28;20494;-72
2024/01/01 05:43:22;;;;;;;18.70;10.30;;;7.00;1.00;;;;;;5114075;28;20533;-73
2024/01/01 05:45:49;;;;;;;9.53;8.30;;;7.00;1.00;;;;;;5088936;28;20174;-76
2024/01/01 05:48:15;;;;;;;18.17;10.20;;;7.00;1.00;;;;;;5074449;28;20448;-73
2024/01/01 05:50:40;;;;;;;19.67;9.17;;;7.00;1.00;;;;;;5101544;28;20900;-72
2024/01/01 05:53:06;;;;;;;16.50;9.90;;;7.00;1.00;;;;;;5100333;28;20408;-77
2024/01/01 05:55:33;;;;;;;18.10;10.53;;;7.00;1.00;;;;;;5093289;28;20170;-75
2024/01/01 05:57:58;;;;;;;18.37;10.10;;;7.00;1.00;;;;;;5093884;28;20459;-76
2024/01/01 06:00:25;;;;;;;18.60;11.77;;;7.10;1.00;;;;;;5093261;28;20494;-72
2024/01/01 06:02:51;;;;;;;18.10;11.53;;;7.10;1.00;;;;;;5094064;28;20170;-75
2024/01/01 06:05:17;;;;;;;22.00;11.60;;;7.10;1.00;;;;;;5093331;28;20490;-74
2024/01/01 06:07:43;;;;;;;15.43;10.73;;;7.20;1.00;;;;;;5101531;28;20548;-76
2024/01/01 06:10:09;;;;;;;17.47;11.77;;;7.20;1.00;;;;;;5113328;28;20596;-72
2024/01/01 06:12:35;;;;;;;17.97;12.23;;;7.10;1.00;;;;;;5114327;28;20162;-76
2024/01/01 06:15:00;;;;;;;28.03;11.90;;;7.20;1.00;;;;;;5112146;28;20426;-76
2024/01/01 06:17:26;;;;;;;16.70;10.80;;;7.20;1.00;;;;;;5113737;28;20222;-72
2024/01/01 06:19:52;;;;;;;16.50;12.10;;;7.10;1.00;;;;;;5114382;28;20174;-75
2024/01/01 06:22:18;;;;;;;21.27;12.40;;;7.10;1.00;;;;;;5110663;28;20424;-76
2024/01/01 06:24:43;;;;;;;19.33;11.67;;;7.10;1.00;;;;;;5092869;28;20201;-76
2024/01/01 06:27:09;;;;;;;12.60;10.20;;;7.10;1.00;;;;;;5093754;28;20243;-76
2024/01/01 06:29:35;;;;;;;22.03;12.33;;;7.10;1.00;;;;;;5093947;28;20162;-73
2024/01/01 06:32:00;;;;;;;18.30;12.47;;;7.00;1.00;;;;;;5112011;28;20613;-74
2024/01/01 06:34:26;;;;;;;15.93;12.87;;;7.00;1.00;;;;;;5113938;28;20196;-76
2024/01/01 06:36:52;;;;;;;16.50;10.90;;;7.00;1.00;;;;;;5113508;28;20200;-73
2024/01/01 06:39:17;;;;;;;18.03;12.40;;;7.00;1.00;;;;;;5112750;28;20197;-74
2024/01/01 06:41:43;;;;;;;17.07;11.90;;;7.00;1.00;;;;;;5113804;28;20655;-75
2024/01/01 06:44:09;;;;;;;18.53;11.63;;;7.00;1.00;;;;;;5112666;28;20284;-75
2024/01/01 06:46:34;;;;;;;20.47;12.70;;;7.00;1.00;;;;;;5113067;28;20165;-75
2024/01/01 06:49:00;;;;;;;20.33;11.30;;;7.00;1.00;;;;;;5113942;28;20668;-76
2024/01/01 06:51:26;;;;;;;18.53;12.73;;;7.00;1.00;;;;;;5113180;28;20192;-75
2024/01/01 06:53:52;;;;;;;16.80;12.40;;;6.90;1.00;;;;;;5099012;28;20171;-76
2024/01/01 06:56:17;;;;;;;15.90;11.90;;;6.90;1.00;;;;;;5110156;28;20763;-74
2024/01/01 06:58:43;;;;;;;19.53;12.87;;;6.90;1.00;;;;;;5111083;28;20823;-72
2024/01/01 07:01:09;;;;;;;14.57;11.17;;;6.90;1.00;;;;;;5113544;28;20165;-72
2024/01/01 07:03:34;;;;;;;17.77;11.73;;;6.90;1.00;;;;;;5113826;28;20622;-73
2024/01/01 07:06:00;;;;;;;18.80;11.93;;;7.00;1.00;;;;;;5112692;28;20724;-70
2024/01/01 07:08:26;;;;;;;19.93;12.07;;;6.90;1.00;;;;;;5111205;28;20212;-74
2024/01/01 07:10:51;;;;;;;16.83;10.87;;;6.90;1.00;;;;;;5092038;28;20245;-76
2024/01/01 07:13:17;;;;;;;20.23;11.03;;;6.90;1.00;;;;;;5093027;28;20173;-75
2024/01/01 07:15:43;;;;;;;15.93;11.80;;;7.00;1.00;;;;;;5092290;28;20166;-76
2024/01/01 07:18:09;;;;;;;29.90;13.33;;;6.90;1.00;;;;;;5093053;28;20204;-75
2024/01/01 07:20:35;;;;;;;15.40;10.37;;;6.90;1.00;;;;;;5092905;28;20491;-76
2024/01/01 07:23:01;;;;;;;18.80;11.17;;;6.90;1.00;;;;;;5101550;28;20879;-72
2024/01/01 07:25:27;;;;;;;19.27;12.03;;;7.00;1.00;;;;;;5112493;28;20410;-73
2024/01/01 07:27:53;;;;;;;22.30;11.03;;;6.90;1.00;;;;;;5092339;28;20300;-72
2024/01/01 07:30:19;;;;;;;17.77;10.10;;;6.90;1.00;;;;;;5092642;28;20166;-74
2024/01/01 07:32:45;;;;;;;12.87;10.90;;;7.00;1.00;;;;;;5092937;28;20399;-76
2024/01/01 07:35:11;;;;;;;14.60;10.50;;;6.90;1.00;;;;;;5090818;28;20538;-75
2024/01/01 07:37:37;;;;;;;14.77;10.53;;;6.90;1.00;;;;;;5100190;28;20427;-71
2024/01/01 07:40:03;;;;;;;21.50;11.87;;;6.90;1.00;;;;;;5113096;28;20625;-72
2024/01/01 07:42:29;;;;;;;13.80;10.60;;;6.90;1.00;;;;;;5095601;28;20939;-72
2024/01/01 07:44:55;;;;;;;13.30;9.90;;;6.90;1.00;;;;;;5071730;28;20410;-76
2024/01/01 07:47:20;;;;;;;22.03;9.63;;;6.80;1.00;;;;;;5072554;28;20260;-73
2024/01/01 07:49:46;;;;;;;13.63;9.77;;;6.80;1.00;;;;;;5071027;28;20182;-76
2024/01/01 07:52:15;;;;;;;14.27;10.10;;;6.80;1.00;;;;;;5086642;28;20265;-71
2024/01/01 07:54:40;;;;;;;12.97;9.17;;;6.80;1.00;;;;;;5091560;28;20176;-75
2024/01/01 07:57:06;;;;;;;16.77;10.60;;;6.80;1.00;;;;;;5092722;28;20411;-76
2024/01/01 07:59:33;;;;;;;13.80;10.70;;;6.80;1.00;;;;;;5092553;28;20197;-72
2024/01/01 08:01:59;;;;;;;18.23;10.53;;;6.90;1.00;;;;;;5092684;28;20419;-75
2024/01/01 08:04:26;;;;;;;15.87;10.20;;;6.90;1.00;;;;;;5092118;28;20457;-74
2024/01/01 08:06:52;;;;;;;13.50;9.63;;;7.00;1.00;;;;;;5104518;28;20479;-73
2024/01/01 08:09:17;;;;;;;12.83;9.40;;;6.90;1.00;;;;;;5113687;28;20414;-72
2024/01/01 08:11:43;;;;;;;9.83;8.70;;;7.00;1.00;;;;;;5117017;28;20178;-72
2024/01/01 08:14:09;;;;;;;11.00;9.23;;;7.00;1.00;;;;;;5117024;28;20184;-72
2024/01/01 08:16:34;;;;;;;10.70;8.93;;;7.10;1.00;;;;;;5114921;28;20260;-76
2024/01/01 08:19:00;;;;;;;15.00;11.17;;;7.10;1.00;;;;;;5116482;28;20194;-71
2024/01/01 08:21:26;;;;;;;18.77;10.50;;;7.10;1.00;;;;;;5115367;27;20630;-73
2024/01/01 08:23:53;;;;;;;18.20;8.63;;;7.10;1.00;;;;;;5116679;28;20402;-76
2024/01/01 08:26:18;;;;;;;13.27;9.17;;;7.10;1.00;;;;;;5115350;28;20246;-76
2024/01/01 08:28:51;;;;;;;18.50;9.83;;;7.20;1.00;;;;;;5116237;28;20446;-72
2024/01/01 08:31:18;;;;;;;16.00;9.50;;;7.20;1.00;;;;;;5116607;28;20703;-75
2024/01/01 08:33:44;;;;;;;11.73;7.80;;;7.20;1.00;;;;;;5116485;28;20763;-77
2024/01/01 08:36:09;;;;;;;16.83;9.07;;;7.20;1.00;;;;;;5114306;28;20434;-77
2024/01/01 08:38:35;;;;;;;12.80;8.37;;;7.20;1.00;;;;;;5115880;28;20198;-73
2024/01/01 08:41:01;;;;;;;16.53;8.47;;;7.30;1.00;;;;;;5116435;28;20179;-75
2024/01/01 08:43:26;;;;;;;15.60;7.70;;;7.30;1.00;;;;;;5116046;28;20169;-72
2024/01/01 08:45:52;;;;;;;10.40;8.17;;;7.30;1.00;;;;;;5115314;28;20665;-74
2024/01/01 08:48:18;;;;;;;14.17;8.20;;;7.30;1.00;;;;;;5116069;28;20215;-76
2024/01/01 08:50:43;;;;;;;9.83;7.90;;;7.40;1.00;;;;;;5105104;28;20240;-76
2024/01/01 08:53:09;;;;;;;14.30;7.67;;;7.40;1.00;;;;;;5094737;28;20195;-72
2024/01/01 08:55:35;;;;;;;10.17;7.00;;;7.40;1.00;;;;;;5094544;28;20165;-72
2024/01/01 08:58:00;;;;;;;17.50;7.90;;;7.40;1.00;;;;;;5095510;28;20201;-76
2024/01/01 09:00:26;;;;;;;17.70;7.57;;;7.40;1.00;;;;;;5095702;28;20218;-76
2024/01/01 09:02:52;;;;;;;9.67;7.40;;;7.50;1.00;;;;;;5094981;28;20538;-73
2024/01/01 09:05:17;;;;;;;10.33;8.30;;;7.50;1.00;;;;;;5109562;28;20177;-72
2024/01/01 09:07:43;;;;;;;9.93;7.30;;;7.50;1.00;;;;;;5095298;28;20686;-73
2024/01/01 09:10:09;;;;;;;12.20;7.17;;;7.50;1.00;;;;;;5101240;28;20181;-77
2024/01/01 09:12:34;;;;;;;14.17;7.60;;;7.50;1.00;;;;;;5114780;28;20177;-76
2024/01/01 09:15:00;;;;;;;8.67;6.50;;;7.60;1.00;;;;;;5093869;28;20175;-76
2024/01/01 09:17:26;;;;;;;16.13;6.90;;;7.50;1.00;;;;;;5093719;28;20234;-77
2024/01/01 09:19:53;;;;;;;15.97;7.50;;;7.50;1.00;;;;;;5094891;28;20181;-77
2024/01/01 09:22:19;;;;;;;13.93;8.30;;;7.60;1.00;;;;;;5095288;28;20167;-77
2024/01/01 09:24:44;;;;;;;9.87;6.37;;;7.60;1.00;;;;;;5094241;28;20407;-77
2024/01/01 09:27:10;;;;;;;8.77;5.60;;;7.60;1.00;;;;;;5094680;28;20885;-76
2024/01/01 09:29:36;;;;;;;7.73;6.00;;;7.60;1.00;;;;;;5095215;28;20576;-72
2024/01/01 09:32:02;;;;;;;10.20;5.93;;;7.70;1.00;;;;;;5093242;28;20179;-72
2024/01/01 09:34:28;;;;;;;12.10;7.27;;;7.70;1.00;;;;;;5094809;28;20200;-73
2024/01/01 09:36:53;;;;;;;9.10;5.97;;;7.70;1.00;;;;;;5076679;28;20445;-73
2024/01/01 09:39:19;;;;;;;10.20;5.97;;;7.70;1.00;;;;;;5074504;28;20632;-76
2024/01/01 09:41:45;;;;;;;9.10;5.73;;;7.70;1.00;;;;;;5074518;28;20178;-75
2024/01/01 09:44:14;;;;;;;10.40;6.60;;;7.80;1.00;;;;;;5075980;28;20206;-73
2024/01/01 09:46:40;;;;;;;9.67;5.10;;;7.80;1.00;;;;;;5073426;28;20176;-75
2024/01/01 09:49:05;;;;;;;9.40;5.50;;;7.80;1.00;;;;;;5074013;28;20425;-76
2024/01/01 09:51:36;;;;;;;5.90;5.10;;;7.80;1.00;;;;;;5081340;28;20634;-73
2024/01/01 09:54:02;;;;;;;12.93;5.43;;;7.80;1.00;;;;;;5094199;28;20627;-75
2024/01/01 09:56:28;;;;;;;6.23;4.77;;;7.80;1.00;;;;;;5093321;28;20413;-77
2024/01/01 09:58:57;;;;;;;7.60;5.03;;;7.70;1.00;;;;;;5094593;28;20194;-76
2024/01/01 10:01:23;;;;;;;13.53;5.70;;;7.70;1.00;;;;;;5094205;28;20254;-72
2024/01/01 10:04:03;;;;;;;9.53;5.83;;;7.70;1.00;;;;;;5094230;28;20825;-77
2024/01/01 10:06:34;;;;;;;9.47;5.23;;;7.60;1.00;;;;;;5080298;28;20569;-75
2024/01/01 10:09:12;;;;;;;6.90;4.80;;;7.60;1.00;;;;;;5073856;28;20444;-73
2024/01/01 10:11:42;;;;;;;5.53;4.40;;;7.60;1.00;;;;;;5073707;28;20438;-74
2024/01/01 10:14:09;;;;;;;7.23;5.07;;;7.60;1.00;;;;;;5073517;28;20406;-75
2024/01/01 10:16:38;;;;;;;11.83;5.17;;;7.70;1.00;;;;;;5073004;28;20428;-66
2024/01/01 10:19:04;;;;;;;7.47;4.97;;;7.90;1.00;;;;;;5074187;28;20463;-68
2024/01/01 10:21:38;;;;;;;6.80;4.83;;;8.00;1.00;;;;;;5114374;28;20882;-66
2024/01/01 10:24:18;;;;;;;4.90;4.50;;;8.10;1.00;;;;;;5114283;28;20404;-66
2024/01/01 10:26:45;;;;;;;4.20;3.80;;;8.00;1.00;;;;;;5112443;28;20961;-66
2024/01/01 10:29:15;;;;;;;6.17;5.00;;;7.90;1.00;;;;;;5112797;28;20836;-66
2024/01/01 10:31:45;;;;;;;5.90;4.03;;;7.90;1.00;;;;;;5113119;28;20463;-76
2024/01/01 10:34:12;;;;;;;5.63;4.13;;;7.80;1.00;;;;;;5112847;28;20507;-75
2024/01/01 10:36:40;;;;;;;5.00;3.40;;;7.70;1.00;;;;;;5111891;28;20801;-76
2024/01/01 10:39:06;;;;;;;4.93;3.20;;;7.50;1.00;;;;;;5113840;28;20423;-74
2024/01/01 10:41:34;;;;;;;3.97;3.60;;;7.40;1.00;;;;;;5114035;28;20407;-73
2024/01/01 10:44:02;;;;;;;8.03;3.50;;;7.40;1.00;;;;;;5112743;28;20425;-72
2024/01/01 10:46:34;;;;;;;4.67;3.27;;;7.40;1.00;;;;;;5111540;28;20410;-72
2024/01/01 10:49:01;;;;;;;5.23;4.60;;;7.40;1.00;;;;;;5112221;28;20442;-76
2024/01/01 10:51:41;;;;;;;4.73;3.70;;;7.30;1.00;;;;;;5113698;28;20872;-74
2024/01/01 10:54:32;;;;;;;6.20;2.97;;;7.30;1.00;;;;;;5113827;28;20490;-76
2024/01/01 10:57:16;;;;;;;4.93;3.07;;;7.30;1.00;;;;;;5113881;28;20411;-74
2024/01/01 11:00:18;;;;;;;3.60;3.03;;;7.20;1.00;;;;;;5113630;28;20418;-73
2024/01/01 11:02:44;;;;;;;3.70;3.03;;;7.20;1.00;;;;;;5063663;28;20458;-75
2024/01/01 11:05:11;;;;;;;3.10;2.73;;;7.20;1.00;;;;;;5090816;28;20432;-75
2024/01/01 11:07:52;;;;;;;3.57;2.90;;;7.10;1.00;;;;;;5092667;28;20448;-76
2024/01/01 11:10:36;;;;;;;4.60;2.90;;;7.10;1.00;;;;;;5092919;28;20414;-75
2024/01/01 11:13:08;;;;;;;4.37;3.17;;;7.10;1.00;;;;;;5093338;28;20456;-76
2024/01/01 11:15:44;;;;;;;4.43;2.40;;;7.10;1.00;;;;;;5092429;28;20430;-77
2024/01/01 11:18:15;;;;;;;3.63;3.00;;;7.00;1.00;;;;;;5086115;28;20427;-75
2024/01/01 11:20:48;;;;;;;4.27;2.60;;;7.00;1.00;;;;;;5092643;28;20813;-74
2024/01/01 11:23:42;;;;;;;3.00;2.80;;;7.00;1.00;;;;;;5091829;28;20978;-72
2024/01/01 11:26:23;;;;;;;6.63;3.10;;;7.00;1.00;;;;;;5091597;28;20502;-74
2024/01/01 11:28:55;;;;;;;5.13;3.37;;;7.10;1.00;;;;;;5092931;28;20811;-73
2024/01/01 11:31:22;;;;;;;3.10;2.60;;;7.10;1.00;;;;;;5092685;28;20868;-74
2024/01/01 11:34:00;;;;;;;3.27;3.07;;;7.10;5.80;;;;;;5091824;28;20409;-73
2024/01/01 11:36:29;;;;;;;3.50;2.93;;;7.10;11.50;;;;;;5091801;28;20978;-72
2024/01/01 11:38:56;;;;;;;5.33;3.10;;;7.20;25.80;;;;;;5091699;28;20432;-73
2024/01/01 11:41:39;;;;;;;3.37;3.17;;;7.10;29.70;;;;;;5089225;28;20408;-74
2024/01/01 11:44:15;;;;;;;3.87;3.50;;;7.00;30.10;;;;;;5094782;28;20447;-73
2024/01/01 11:46:42;;;;;;;4.00;3.40;;;7.10;44.60;;;;;;5096049;28;20805;-73
2024/01/01 11:49:08;;;;;;;4.17;3.77;;;7.10;57.70;;;;;;5102418;28;20447;-75
2024/01/01 11:51:57;;;;;;;7.30;3.40;;;7.00;74.90;;;;;;5117220;28;20398;-73
2024/01/01 11:54:26;;;;;;;7.20;3.93;;;7.10;83.30;;;;;;5117078;28;20430;-77
2024/01/01 11:56:59;;;;;;;4.60;4.20;;;7.00;93.60;;;;;;5116602;28;20899;-73
2024/01/01 11:59:30;;;;;;;4.93;4.53;;;7.10;99.90;;;;;;5076447;28;20948;-73
2024/01/01 12:01:56;;;;;;;9.73;4.77;;;7.20;99.90;;;;;;5075947;28;20413;-73
2024/01/01 12:04:22;;;;;;;4.53;4.10;;;7.20;99.90;;;;;;5091125;28;20385;-75
2024/01/01 12:06:51;;;;;;;5.73;4.17;;;7.20;99.90;;;;;;5116214;28;20856;-74
2024/01/01 12:09:18;;;;;;;6.43;4.00;;;7.20;99.90;;;;;;5116702;28;20420;-74
2024/01/01 12:11:44;;;;;;;5.03;4.10;;;7.20;99.90;;;;;;5117024;28;20409;-75
2024/01/01 12:14:10;;;;;;;7.83;5.33;;;7.30;99.90;;;;;;5116894;28;20411;-74
2024/01/01 12:16:37;;;;;;;10.57;5.10;;;7.20;99.90;;;;;;5115983;28;20162;-73
2024/01/01 12:19:05;;;;;;;13.53;5.40;;;7.20;99.90;;;;;;5115400;28;20487;-75
2024/01/01 12:21:42;;;;;;;8.23;4.13;;;7.20;99.90;;;;;;5115600;28;20422;-73
2024/01/01 12:24:12;;;;;;;6.23;4.90;;;7.30;99.90;;;;;;5115653;28;20859;-73
2024/01/01 12:26:38;;;;;;;7.73;5.13;;;7.30;99.90;;;;;;5100897;28;20952;-74
2024/01/01 12:29:19;;;;;;;8.77;5.40;;;7.40;99.90;;;;;;5096184;28;20518;-75
2024/01/01 12:31:47;;;;;;;5.60;5.10;;;7.40;99.90;;;;;;5096208;28;20403;-74
2024/01/01 12:34:15;;;;;;;11.63;5.93;;;7.40;99.90;;;;;;5100669;28;20442;-73
2024/01/01 12:36:42;;;;;;;6.90;5.27;;;7.40;99.90;;;;;;5115449;28;20416;-73
2024/01/01 12:39:08;;;;;;;9.90;5.20;;;7.40;99.90;;;;;;5116380;28;20897;-73
2024/01/01 12:41:34;;;;;;;5.57;4.90;;;7.40;99.90;;;;;;5116051;28;20417;-74
2024/01/01 12:44:00;;;;;;;4.27;3.83;;;7.40;99.90;;;;;;5116210;28;20760;-74
2024/01/01 12:46:27;;;;;;;7.10;4.80;;;7.40;99.90;;;;;;5115128;28;20172;-74
2024/01/01 12:48:53;;;;;;;10.23;5.50;;;7.40;99.90;;;;;;5115046;28;20287;-74
2024/01/01 12:51:23;;;;;;;4.90;3.87;;;7.40;99.90;;;;;;5116132;28;20396;-74